Time;durP1;ratioP1;P1;durP2;ratioP2;P2;SDS_P1;SDS_P2;PMS_P1;PMS_P2;Temp;Humidity;BMP_temperature;BMP_pressure;BME280_temperature;BME280_humidity;BME280_pressure;Samples;Min_cycle;Max_cycle;Signal;HPM_P1;HPM_P2
2023/03/13 00:00:15;;;;;;;;;5.00;5.00;;;;;15.41;100.00;100334.75;5079537;28;45483;-79
2023/03/13 00:02:40;;;;;;;;;4.00;4.00;;;;;15.49;100.00;100361.28;5079511;28;46332;-78
2023/03/13 00:05:05;;;;;;;;;4.00;4.00;;;;;15.48;100.00;100354.25;5080287;28;45422;-79
2023/03/13 00:07:31;;;;;;;;;4.33;4.33;;;;;15.52;100.00;100349.31;5080679;27;45295;-79
2023/03/13 00:09:56;;;;;;;;;4.00;4.00;;;;;15.52;100.00;100344.78;5080294;28;45302;-79
2023/03/13 00:12:21;;;;;;;;;3.67;3.67;;;;;15.51;100.00;100347.66;5080391;28;45388;-79
2023/03/13 00:14:47;;;;;;;;;4.33;4.33;;;;;15.47;100.00;100325.03;5079053;28;48217;-78
2023/03/13 00:17:12;;;;;;;;;4.00;4.00;;;;;15.48;100.00;100329.34;5080622;28;45262;-78
2023/03/13 00:19:37;;;;;;;;;5.00;5.00;;;;;15.48;100.00;100324.78;5078928;28;45326;-79
2023/03/13 00:22:02;;;;;;;;;3.00;3.00;;;;;15.44;100.00;100315.56;5079153;27;45929;-79
2023/03/13 00:24:28;;;;;;;;;6.00;4.00;;;;;15.48;100.00;100324.00;5078707;27;46226;-78
2023/03/13 00:26:54;;;;;;;;;5.00;4.00;;;;;15.52;100.00;100325.19;5078874;28;52454;-78
2023/03/13 00:29:19;;;;;;;;;5.00;4.00;;;;;15.53;100.00;100319.63;5080241;27;45573;-78
2023/03/13 00:31:45;;;;;;;;;4.00;4.00;;;;;15.52;100.00;100318.00;5078721;28;47824;-79
2023/03/13 00:34:10;;;;;;;;;3.00;3.00;;;;;15.53;100.00;100314.28;5095593;27;48141;-78
2023/03/13 00:36:35;;;;;;;;;3.67;3.00;;;;;15.53;100.00;100313.44;5078908;27;45568;-79
2023/03/13 00:39:03;;;;;;;;;6.00;6.00;;;;;15.63;100.00;100321.81;5080024;28;45406;-79
2023/03/13 00:41:30;;;;;;;;;5.00;5.00;;;;;15.64;100.00;100322.63;5078860;28;46191;-78
2023/03/13 00:43:56;;;;;;;;;6.00;6.00;;;;;15.68;100.00;100323.03;5078526;28;47689;-78
2023/03/13 00:46:25;;;;;;;;;6.00;6.00;;;;;15.68;100.00;100326.50;5078762;28;45711;-79
2023/03/13 00:48:51;;;;;;;;;4.67;4.67;;;;;15.71;100.00;100325.28;5078862;28;45176;-79
2023/03/13 00:51:18;;;;;;;;;2.00;2.00;;;;;15.73;100.00;100323.19;5078344;28;47193;-78
2023/03/13 00:53:43;;;;;;;;;2.33;2.33;;;;;15.74;100.00;100314.94;5078680;28;47307;-79
2023/03/13 00:56:20;;;;;;;;;4.67;4.67;;;;;15.76;100.00;100306.66;5078513;28;45690;-79
2023/03/13 00:58:47;;;;;;;;;4.00;4.00;;;;;15.73;100.00;100310.63;5080114;28;45345;-78
2023/03/13 01:01:15;;;;;;;;;3.33;3.33;;;;;15.77;100.00;100321.69;5080051;27;45330;-78
2023/03/13 01:03:42;;;;;;;;;3.00;3.00;;;;;15.73;100.00;100315.97;5078354;28;48352;-78
2023/03/13 01:06:10;;;;;;;;;4.00;3.00;;;;;15.78;100.00;100316.13;5079583;27;45347;-79
2023/03/13 01:08:36;;;;;;;;;3.67;3.67;;;;;15.78;100.00;100310.75;5079493;27;45366;-78
2023/03/13 01:11:04;;;;;;;;;2.33;2.33;;;;;15.79;100.00;100306.22;5078361;27;46256;-78
2023/03/13 01:13:31;;;;;;;;;5.67;4.00;;;;;15.76;100.00;100326.25;5079212;27;45207;-78
2023/03/13 01:16:00;;;;;;;;;3.33;3.00;;;;;15.77;100.00;100316.34;5079597;27;45568;-79
2023/03/13 01:18:26;;;;;;;;;4.00;4.00;;;;;15.72;100.00;100305.47;5078161;28;45248;-78
2023/03/13 01:20:52;;;;;;;;;4.00;4.00;;;;;15.75;100.00;100303.16;5077931;28;54420;-79
2023/03/13 01:23:17;;;;;;;;;3.00;3.00;;;;;15.87;100.00;100334.63;5078589;28;47994;-79
2023/03/13 01:25:42;;;;;;;;;4.00;4.00;;;;;15.86;100.00;100320.38;5078727;28;45275;-79
2023/03/13 01:28:08;;;;;;;;;4.33;4.33;;;;;15.76;100.00;100293.28;5080275;28;45259;-79
2023/03/13 01:30:33;;;;;;;;;3.67;3.67;;;;;15.81;100.00;100306.00;5079498;28;45203;-79
2023/03/13 01:32:58;;;;;;;;;4.00;4.00;;;;;15.82;100.00;100304.97;5079770;27;46719;-79
2023/03/13 01:35:24;;;;;;;;;6.00;4.00;;;;;15.78;100.00;100280.50;5080321;27;45216;-80
2023/03/13 01:37:49;;;;;;;;;6.00;4.00;;;;;15.75;100.00;100276.38;5085297;27;45191;-79
2023/03/13 01:40:14;;;;;;;;;4.33;4.33;;;;;15.80;100.00;100273.03;5086154;27;45326;-79
2023/03/13 01:42:55;;;;;;;;;4.67;4.67;;;;;15.83;100.00;100266.44;5086100;28;45539;-78
2023/03/13 01:46:05;;;;;;;;;3.33;3.33;;;;;15.87;100.00;100270.31;5086010;27;45319;-79
2023/03/13 01:48:39;;;;;;;;;3.67;3.67;;;;;15.86;100.00;100260.63;5061445;28;45710;-77
2023/03/13 01:51:11;;;;;;;;;6.00;6.00;;;;;15.85;100.00;100267.00;5084175;28;46034;-78
2023/03/13 01:53:43;;;;;;;;;6.00;5.00;;;;;15.95;100.00;100274.56;5086054;27;45383;-79
2023/03/13 01:56:14;;;;;;;;;4.00;4.00;;;;;15.97;100.00;100270.66;5084293;28;46200;-79
2023/03/13 01:58:40;;;;;;;;;5.00;4.33;;;;;15.95;100.00;100253.91;5086239;27;45231;-78
2023/03/13 02:01:05;;;;;;;;;6.00;5.00;;;;;15.94;100.00;100244.25;5085749;27;45184;-78
2023/03/13 02:03:32;;;;;;;;;5.00;5.00;;;;;15.96;100.00;100254.75;5084640;28;47485;-78
2023/03/13 02:05:59;;;;;;;;;6.00;6.00;;;;;15.96;100.00;100247.56;5084155;27;45395;-78
2023/03/13 02:08:31;;;;;;;;;6.33;4.33;;;;;15.95;100.00;100226.31;5084809;27;45307;-78
2023/03/13 02:11:21;;;;;;;;;5.33;4.67;;;;;15.94;100.00;100208.59;5084428;28;47371;-78
2023/03/13 02:13:48;;;;;;;;;6.00;5.67;;;;;15.89;100.00;100206.56;5084484;27;47114;-79
2023/03/13 02:16:15;;;;;;;;;4.33;4.33;;;;;15.93;100.00;100204.28;5085804;27;45383;-77
2023/03/13 02:18:40;;;;;;;;;5.33;5.00;;;;;15.78;100.00;100181.38;5070820;27;45256;-77
2023/03/13 02:21:18;;;;;;;;;9.67;5.67;;;;;15.90;100.00;100192.94;5085291;27;45515;-77
2023/03/13 02:24:34;;;;;;;;;5.33;5.33;;;;;15.85;100.00;100192.00;5085553;27;46203;-77
2023/03/13 02:27:00;;;;;;;;;8.00;8.00;;;;;15.87;100.00;100187.25;5071876;27;45484;-77
2023/03/13 02:29:26;;;;;;;;;8.67;6.67;;;;;15.80;100.00;100189.97;5084336;28;45258;-77
2023/03/13 02:31:52;;;;;;;;;7.00;5.00;;;;;15.76;100.00;100178.91;5084099;28;46218;-78
2023/03/13 02:34:21;;;;;;;;;6.33;5.00;;;;;15.79;100.00;100164.25;5084784;27;46256;-79
2023/03/13 02:36:48;;;;;;;;;6.00;4.00;;;;;15.76;100.00;100178.91;5084094;28;46176;-77
2023/03/13 02:39:17;;;;;;;;;8.00;6.00;;;;;15.82;100.00;100193.25;5085176;27;45311;-78
2023/03/13 02:41:45;;;;;;;;;5.00;5.00;;;;;15.84;100.00;100190.38;5085580;28;45255;-77
2023/03/13 02:44:10;;;;;;;;;5.00;5.00;;;;;15.80;100.00;100186.50;5083710;28;47191;-77
2023/03/13 02:46:44;;;;;;;;;5.00;5.00;;;;;15.80;100.00;100175.78;5085282;28;45349;-77
2023/03/13 02:49:19;;;;;;;;;7.67;7.00;;;;;15.80;100.00;100186.50;5080832;28;45232;-78
2023/03/13 02:51:45;;;;;;;;;6.00;6.00;;;;;15.72;100.00;100175.03;5080602;28;46239;-77
2023/03/13 02:54:15;;;;;;;;;6.00;6.00;;;;;15.76;100.00;100181.59;5081860;28;45837;-77
2023/03/13 02:56:44;;;;;;;;;7.00;5.00;;;;;15.81;100.00;100175.56;5080534;28;45739;-77
2023/03/13 02:59:09;;;;;;;;;5.67;5.00;;;;;15.82;100.00;100190.59;5081491;27;45225;-77
2023/03/13 03:01:34;;;;;;;;;7.00;7.00;;;;;15.82;100.00;100187.91;5080592;28;47173;-77
2023/03/13 03:04:00;;;;;;;;;7.00;6.00;;;;;15.81;100.00;100185.44;5081195;28;58344;-77
2023/03/13 03:06:25;;;;;;;;;5.67;5.67;;;;;15.83;100.00;100178.00;5080180;28;45239;-78
2023/03/13 03:08:50;;;;;;;;;5.67;5.00;;;;;15.84;100.00;100176.97;5081861;27;45184;-77
2023/03/13 03:11:16;;;;;;;;;10.00;7.00;;;;;15.84;100.00;100166.25;5081560;27;50991;-77
2023/03/13 03:13:41;;;;;;;;;5.00;5.00;;;;;15.80;100.00;100160.50;5081405;27;46186;-77
2023/03/13 03:16:13;;;;;;;;;9.33;8.67;;;;;15.90;100.00;100170.72;5081781;27;45340;-77
2023/03/13 03:18:39;;;;;;;;;9.00;7.00;;;;;15.87;100.00;100166.59;5080395;28;45255;-77
2023/03/13 03:21:05;;;;;;;;;2.00;2.00;;;;;15.90;100.00;100166.16;5079906;28;47262;-77
2023/03/13 03:23:33;;;;;;;;;7.33;7.33;;;;;15.90;100.00;100155.44;5081334;27;46146;-77
2023/03/13 03:25:59;;;;;;;;;7.00;7.00;;;;;15.91;100.00;100153.59;5071478;27;45427;-77
2023/03/13 03:28:25;;;;;;;;;6.00;6.00;;;;;15.91;100.00;100150.91;5068372;27;45401;-77
2023/03/13 03:30:53;;;;;;;;;6.67;6.67;;;;;15.86;100.00;100138.19;5081386;27;45297;-77
2023/03/13 03:33:18;;;;;;;;;9.00;8.00;;;;;15.89;100.00;100142.25;5081074;27;45274;-76
2023/03/13 03:35:44;;;;;;;;;9.67;8.33;;;;;15.92;100.00;100157.91;5081076;27;45214;-77
2023/03/13 03:38:10;;;;;;;;;6.33;6.33;;;;;15.89;100.00;100139.59;5081339;28;45500;-77
2023/03/13 03:40:35;;;;;;;;;9.67;7.33;;;;;15.88;100.00;100135.28;5081288;28;45431;-77
2023/03/13 03:43:00;;;;;;;;;6.33;6.33;;;;;15.90;100.00;100146.59;5067502;28;45252;-77
2023/03/13 03:45:26;;;;;;;;;6.33;6.33;;;;;15.92;100.00;100149.06;5081212;27;45340;-77
2023/03/13 03:47:51;;;;;;;;;7.00;7.00;;;;;15.91;100.00;100140.19;5080634;27;45494;-76
2023/03/13 03:50:17;;;;;;;;;7.00;6.00;;;;;15.89;100.00;100139.59;5079555;28;45962;-76
2023/03/13 03:52:42;;;;;;;;;6.00;6.00;;;;;15.90;100.00;100139.38;5080658;27;45409;-77
2023/03/13 03:55:08;;;;;;;;;9.00;9.00;;;;;15.90;100.00;100141.25;5080850;28;46423;-77
2023/03/13 03:57:33;;;;;;;;;8.67;8.67;;;;;15.93;100.00;100135.44;5079847;27;45389;-77
2023/03/13 03:59:59;;;;;;;;;9.00;7.67;;;;;15.89;100.00;100152.97;5079361;28;49235;-77
2023/03/13 04:02:24;;;;;;;;;7.00;7.00;;;;;15.85;100.00;100149.94;5096230;27;51566;-77
2023/03/13 04:04:49;;;;;;;;;6.00;6.00;;;;;15.88;100.00;100132.59;5079081;28;55053;-77
2023/03/13 04:07:14;;;;;;;;;6.67;6.67;;;;;15.90;100.00;100144.72;5080112;28;49892;-77
2023/03/13 04:09:40;;;;;;;;;6.00;6.00;;;;;15.98;100.00;100149.00;5080567;28;53822;-76
2023/03/13 04:12:05;;;;;;;;;8.33;7.33;;;;;15.95;100.00;100152.09;5080534;27;45279;-77
2023/03/13 04:14:31;;;;;;;;;6.00;6.00;;;;;15.95;100.00;100140.56;5079420;28;46086;-77
2023/03/13 04:16:56;;;;;;;;;7.33;6.00;;;;;15.96;100.00;100128.81;5066792;27;47090;-78
2023/03/13 04:19:21;;;;;;;;;6.00;6.00;;;;;15.95;100.00;100119.13;5080348;28;51018;-78
2023/03/13 04:21:47;;;;;;;;;6.00;6.00;;;;;15.92;100.00;100131.09;5080300;27;48382;-77
2023/03/13 04:24:12;;;;;;;;;8.33;8.33;;;;;15.92;100.00;100132.97;5080487;27;45275;-74
2023/03/13 04:26:37;;;;;;;;;5.00;4.67;;;;;15.87;100.00;100125.63;5080432;28;45347;-77
2023/03/13 04:29:05;;;;;;;;;8.00;7.00;;;;;15.89;100.00;100134.22;5075855;27;46125;-76
2023/03/13 04:31:31;;;;;;;;;7.67;7.00;;;;;15.87;100.00;100114.91;5077728;28;46110;-76
2023/03/13 04:33:56;;;;;;;;;7.33;7.33;;;;;15.88;100.00;100121.88;5080232;27;45415;-77
2023/03/13 04:36:21;;;;;;;;;6.33;6.00;;;;;15.86;100.00;100105.22;5078794;28;45295;-76
2023/03/13 04:38:47;;;;;;;;;4.00;4.00;;;;;15.87;100.00;100112.22;5080157;27;45365;-77
2023/03/13 04:41:12;;;;;;;;;7.33;7.00;;;;;15.87;100.00;100096.13;5078372;28;47057;-76
2023/03/13 04:43:37;;;;;;;;;8.67;7.00;;;;;15.88;100.00;100087.88;5080132;28;45309;-76
2023/03/13 04:46:02;;;;;;;;;7.33;7.33;;;;;15.93;100.00;100100.59;5078734;27;45361;-76
2023/03/13 04:48:28;;;;;;;;;13.00;10.00;;;;;15.89;100.00;100089.50;5080276;28;45283;-77
2023/03/13 04:50:53;;;;;;;;;9.00;8.00;;;;;15.93;100.00;100102.44;5079365;28;54387;-77
2023/03/13 04:53:18;;;;;;;;;4.00;4.00;;;;;15.91;100.00;100110.72;5080214;28;45383;-77
2023/03/13 04:55:44;;;;;;;;;8.67;6.33;;;;;15.93;100.00;100108.63;5078664;28;45349;-76
2023/03/13 04:58:09;;;;;;;;;6.33;6.33;;;;;15.95;100.00;100109.22;5078515;28;47112;-76
2023/03/13 05:00:34;;;;;;;;;6.67;5.67;;;;;15.96;100.00;100116.25;5079508;28;45340;-77
2023/03/13 05:03:00;;;;;;;;;8.00;6.33;;;;;15.84;100.00;100094.75;5079380;28;55463;-77
2023/03/13 05:05:25;;;;;;;;;7.00;5.33;;;;;15.93;100.00;100100.59;5081203;27;45359;-77
2023/03/13 05:07:50;;;;;;;;;8.00;7.00;;;;;15.92;100.00;100103.50;5080526;27;53348;-77
2023/03/13 05:10:16;;;;;;;;;7.00;7.00;;;;;15.92;100.00;100114.22;5061829;28;46379;-78
2023/03/13 05:12:41;;;;;;;;;2.67;2.67;;;;;15.90;100.00;100106.41;5078449;28;46005;-77
2023/03/13 05:15:07;;;;;;;;;8.33;7.67;;;;;16.06;100.00;100113.03;5078442;27;45221;-77
2023/03/13 05:17:32;;;;;;;;;7.67;7.67;;;;;15.93;100.00;100094.41;5078332;28;45852;-76
2023/03/13 05:19:58;;;;;;;;;5.67;5.67;;;;;15.88;100.00;100113.84;5079418;27;45199;-77
2023/03/13 05:22:23;;;;;;;;;10.00;8.33;;;;;15.87;100.00;100117.56;5077911;28;58654;-76
2023/03/13 05:24:48;;;;;;;;;8.00;8.00;;;;;15.86;100.00;100111.38;5079543;27;45202;-78
2023/03/13 05:27:14;;;;;;;;;7.33;7.33;;;;;15.85;100.00;100104.41;5079704;27;45179;-77
2023/03/13 05:29:39;;;;;;;;;9.33;9.00;;;;;15.80;100.00;100096.19;5076704;28;45136;-76
2023/03/13 05:32:05;;;;;;;;;9.00;8.00;;;;;15.88;100.00;100100.44;5068575;28;45445;-77
2023/03/13 05:34:30;;;;;;;;;6.00;6.00;;;;;15.82;100.00;100102.16;5079432;27;45262;-77
2023/03/13 05:36:55;;;;;;;;;8.33;7.00;;;;;15.81;100.00;100102.41;5079460;28;45314;-77
2023/03/13 05:39:21;;;;;;;;;7.67;7.33;;;;;15.77;100.00;100099.34;5079070;28;46304;-77
2023/03/13 05:41:46;;;;;;;;;8.67;8.67;;;;;15.83;100.00;100095.75;5079063;28;50112;-77
2023/03/13 05:44:11;;;;;;;;;8.33;6.33;;;;;15.84;100.00;100088.53;5078856;28;49877;-77
2023/03/13 05:46:37;;;;;;;;;8.67;6.67;;;;;15.81;100.00;100081.78;5077535;28;49182;-77
2023/03/13 05:49:02;;;;;;;;;8.00;7.33;;;;;15.83;100.00;100098.44;5068039;27;49623;-77
2023/03/13 05:51:27;;;;;;;;;9.00;8.00;;;;;15.76;100.00;100089.66;5077927;28;48801;-77
2023/03/13 05:53:52;;;;;;;;;11.00;9.00;;;;;15.74;100.00;100083.72;5073863;28;45450;-77
2023/03/13 05:56:18;;;;;;;;;6.67;6.00;;;;;15.79;100.00;100083.88;5071500;28;56391;-76
2023/03/13 05:58:43;;;;;;;;;10.33;9.33;;;;;15.79;100.00;100091.91;5077440;28;50541;-77
2023/03/13 06:01:10;;;;;;;;;9.00;7.33;;;;;15.80;100.00;100090.03;5078723;28;57101;-76
2023/03/13 06:03:36;;;;;;;;;8.33;7.00;;;;;15.70;100.00;100074.50;5077907;28;45368;-76
2023/03/13 06:06:01;;;;;;;;;9.33;9.00;;;;;15.82;100.00;100096.81;5078612;28;45175;-77
2023/03/13 06:08:27;;;;;;;;;8.00;8.00;;;;;15.78;100.00;100090.28;5078881;27;45605;-76
2023/03/13 06:10:53;;;;;;;;;7.00;7.00;;;;;15.80;100.00;100082.00;5077899;28;45590;-77
2023/03/13 06:13:18;;;;;;;;;9.00;7.33;;;;;15.71;100.00;100068.91;5076852;28;45626;-73
2023/03/13 06:15:50;;;;;;;;;7.00;7.00;;;;;15.82;100.00;100085.25;5079042;27;45264;-77
2023/03/13 06:18:15;;;;;;;;;5.00;5.00;;;;;15.76;100.00;100074.41;5078985;27;46158;-77
2023/03/13 06:20:41;;;;;;;;;7.67;5.00;;;;;15.81;100.00;100065.72;5078601;28;45280;-76
2023/03/13 06:23:06;;;;;;;;;8.33;8.00;;;;;15.82;100.00;100078.06;5079955;28;45397;-77
2023/03/13 06:25:33;;;;;;;;;6.33;6.33;;;;;15.76;100.00;100061.03;5082388;28;45318;-77
2023/03/13 06:27:59;;;;;;;;;6.67;6.67;;;;;15.80;100.00;100082.00;5082637;27;46385;-77
2023/03/13 06:30:24;;;;;;;;;6.00;6.00;;;;;15.76;100.00;100069.06;5074805;28;45362;-77
2023/03/13 06:32:49;;;;;;;;;5.33;5.00;;;;;15.85;100.00;100071.41;5077643;27;45610;-77
2023/03/13 06:35:14;;;;;;;;;7.33;6.33;;;;;15.81;100.00;100059.53;5061587;28;54297;-76
2023/03/13 06:37:40;;;;;;;;;5.00;5.00;;;;;15.82;100.00;100045.91;5077747;28;47259;-77
2023/03/13 06:40:05;;;;;;;;;8.33;7.00;;;;;15.79;100.00;100051.72;5081324;28;49479;-77
2023/03/13 06:42:31;;;;;;;;;7.00;6.33;;;;;15.78;100.00;100048.22;5078608;27;45277;-74
2023/03/13 06:44:56;;;;;;;;;7.33;7.33;;;;;15.83;100.00;100068.16;5071823;28;45536;-76
2023/03/13 06:47:21;;;;;;;;;8.00;7.00;;;;;15.79;100.00;100051.72;5081567;28;50451;-75
2023/03/13 06:49:47;;;;;;;;;6.00;6.00;;;;;15.77;100.00;100054.63;5073953;27;45354;-75
2023/03/13 06:52:12;;;;;;;;;7.67;6.67;;;;;15.84;100.00;100059.06;5074773;28;55564;-76
2023/03/13 06:54:37;;;;;;;;;5.33;5.33;;;;;15.78;100.00;100050.88;5081646;28;55677;-76
2023/03/13 06:57:03;;;;;;;;;6.00;5.33;;;;;15.75;100.00;100062.06;5081339;28;45639;-75
2023/03/13 06:59:28;;;;;;;;;8.00;7.67;;;;;15.74;100.00;100048.88;5073009;28;45312;-76
2023/03/13 07:01:53;;;;;;;;;6.00;6.00;;;;;15.74;100.00;100052.38;5081876;27;45408;-77
2023/03/13 07:04:19;;;;;;;;;6.00;5.00;;;;;15.76;100.00;100042.28;5079437;28;51808;-76
2023/03/13 07:06:44;;;;;;;;;8.33;6.67;;;;;15.76;100.00;100053.00;5061481;28;45354;-76
2023/03/13 07:09:09;;;;;;;;;8.33;6.67;;;;;15.72;100.00;100035.75;5064058;28;55332;-76
2023/03/13 07:11:35;;;;;;;;;6.67;6.00;;;;;15.69;100.00;100030.84;5082007;28;45459;-76
2023/03/13 07:14:00;;;;;;;;;1.00;1.00;;;;;15.68;100.00;100042.56;5081714;27;45955;-76
2023/03/13 07:16:26;;;;;;;;;8.67;7.33;;;;;15.71;100.00;100039.44;5081672;27;46032;-76
2023/03/13 07:18:52;;;;;;;;;6.33;5.00;;;;;15.64;100.00;100020.78;5081368;27;45694;-77
2023/03/13 07:21:17;;;;;;;;;8.00;8.00;;;;;15.74;100.00;100041.66;5081022;27;45216;-76
2023/03/13 07:23:42;;;;;;;;;7.00;6.00;;;;;15.68;100.00;100023.81;5079837;28;48673;-76
2023/03/13 07:26:13;;;;;;;;;7.00;6.00;;;;;15.74;100.00;100027.44;5081174;27;45220;-76
2023/03/13 07:28:39;;;;;;;;;5.00;5.00;;;;;15.71;100.00;100022.56;5080326;27;45406;-76
2023/03/13 07:31:19;;;;;;;;;6.00;6.00;;;;;15.75;100.00;100024.53;5067778;27;45560;-76
2023/03/13 07:33:45;;;;;;;;;5.67;5.67;;;;;15.82;100.00;100020.97;5079647;28;46522;-76
2023/03/13 07:36:14;;;;;;;;;7.67;6.00;;;;;15.89;100.00;100033.22;5080987;27;46406;-75
2023/03/13 07:38:39;;;;;;;;;5.00;5.00;;;;;15.92;100.00;100010.53;5080893;27;45383;-75
2023/03/13 07:41:05;;;;;;;;;8.00;6.33;;;;;15.97;100.00;100021.41;5081484;28;45397;-75
2023/03/13 07:43:31;;;;;;;;;5.00;4.00;;;;;15.95;100.00;100009.28;5081173;28;45302;-76
2023/03/13 07:46:02;;;;;;;;;7.00;5.67;;;;;15.96;100.00;100019.78;5079917;28;46348;-75
2023/03/13 07:48:36;;;;;;;;;6.67;6.67;;;;;16.00;100.00;100012.91;5079806;28;45772;-75
2023/03/13 07:51:04;;;;;;;;;4.33;3.00;;;;;16.05;100.00;100017.59;5080355;27;45374;-76
2023/03/13 07:53:29;;;;;;;;;6.33;5.33;;;;;16.00;100.00;100001.38;5076287;28;46970;-76
2023/03/13 07:56:04;;;;;;;;;6.33;5.00;;;;;16.06;100.00;99988.91;5079775;27;47498;-76
2023/03/13 07:58:31;;;;;;;;;6.00;5.00;;;;;16.18;100.00;100000.50;5066898;27;45383;-76
2023/03/13 08:00:57;;;;;;;;;4.00;4.00;;;;;16.18;100.00;99988.94;5070570;27;45417;-76
2023/03/13 08:03:23;;;;;;;;;5.67;5.00;;;;;16.19;100.00;99991.38;5080925;28;45268;-76
2023/03/13 08:06:06;;;;;;;;;5.00;5.00;;;;;16.22;100.00;99992.81;5079085;28;47103;-76
2023/03/13 08:08:32;;;;;;;;;7.33;5.33;;;;;16.22;100.00;99990.94;5076164;27;46121;-76
2023/03/13 08:11:15;;;;;;;;;6.00;5.00;;;;;16.30;100.00;99994.31;5079616;28;45158;-76
2023/03/13 08:13:40;;;;;;;;;7.33;6.67;;;;;16.28;100.00;99998.06;5073281;28;45626;-75
2023/03/13 08:16:09;;;;;;;;;7.00;5.67;;;;;16.33;100.00;99999.22;5075473;28;45522;-76
2023/03/13 08:18:37;;;;;;;;;5.00;5.00;;;;;16.38;100.00;99988.63;5080742;28;45229;-75
2023/03/13 08:21:07;;;;;;;;;7.00;5.00;;;;;16.41;100.00;99988.97;5080363;27;45361;-75
2023/03/13 08:23:33;;;;;;;;;5.33;5.33;;;;;16.45;100.00;99985.84;5072327;28;46304;-76
2023/03/13 08:26:07;;;;;;;;;5.00;5.00;;;;;16.51;100.00;99979.53;5073017;28;45195;-76
2023/03/13 08:28:33;;;;;;;;;5.33;5.33;;;;;16.57;100.00;99983.16;5080634;27;45203;-75
2023/03/13 08:31:06;;;;;;;;;6.67;6.00;;;;;16.61;100.00;99970.94;5078745;28;45278;-76
2023/03/13 08:33:31;;;;;;;;;7.00;5.00;;;;;16.64;100.00;99954.38;5064244;28;45245;-77
2023/03/13 08:35:56;;;;;;;;;4.33;4.00;;;;;16.69;100.00;99956.31;5075592;28;50835;-76
2023/03/13 08:38:21;;;;;;;;;6.00;6.00;;;;;16.67;100.00;99953.88;5070087;28;49953;-77
2023/03/13 08:40:47;;;;;;;;;5.33;5.33;;;;;16.74;100.00;99965.34;5075018;27;45583;-77
2023/03/13 08:43:12;;;;;;;;;7.00;4.00;;;;;16.70;100.00;99969.50;5074899;27;45259;-76
2023/03/13 08:45:37;;;;;;;;;5.67;5.33;;;;;16.71;100.00;99957.75;5061874;28;46764;-78
2023/03/13 08:48:03;;;;;;;;;5.67;5.67;;;;;16.73;100.00;99950.25;5078495;28;45271;-77
2023/03/13 08:50:28;;;;;;;;;5.00;5.00;;;;;16.75;100.00;99948.19;5067490;27;45388;-76
2023/03/13 08:52:54;;;;;;;;;6.00;5.00;;;;;16.81;100.00;99956.31;5071103;28;46711;-76
2023/03/13 08:55:19;;;;;;;;;5.00;4.00;;;;;16.84;100.00;99956.69;5077247;27;45411;-76
2023/03/13 08:57:44;;;;;;;;;7.33;5.67;;;;;16.83;100.00;99947.00;5067592;28;45347;-77
2023/03/13 09:00:12;;;;;;;;;3.33;3.33;;;;;16.86;100.00;99951.06;5078341;28;45369;-76
2023/03/13 09:02:37;;;;;;;;;5.00;4.00;;;;;16.83;100.00;99933.59;5074120;28;45597;-76
2023/03/13 09:05:03;;;;;;;;;9.33;7.33;;;;;16.78;100.00;99933.47;5061031;28;47671;-76
2023/03/13 09:07:28;;;;;;;;;10.67;9.33;;;;;16.83;100.00;99949.69;5066212;28;45467;-76
2023/03/13 09:09:54;;;;;;;;;7.33;6.33;;;;;16.79;100.00;99943.97;5075389;27;45878;-76
2023/03/13 09:12:19;;;;;;;;;4.00;4.00;;;;;16.77;100.00;99934.53;5077357;27;45941;-76
2023/03/13 09:14:46;;;;;;;;;7.67;7.00;;;;;16.73;100.00;99920.75;5076854;27;46669;-77
2023/03/13 09:17:12;;;;;;;;;6.67;6.67;;;;;16.77;100.00;99929.16;5072559;28;45424;-77
2023/03/13 09:19:37;;;;;;;;;5.00;5.00;;;;;16.78;100.00;99926.25;5068549;27;45396;-76
2023/03/13 09:22:02;;;;;;;;;7.00;7.00;;;;;16.78;100.00;99917.38;5072458;28;45682;-76
2023/03/13 09:24:28;;;;;;;;;6.00;6.00;;;;;16.78;100.00;99923.56;5071344;28;47086;-77
2023/03/13 09:26:53;;;;;;;;;6.33;6.33;;;;;16.76;100.00;99914.91;5073846;28;45621;-76
2023/03/13 09:29:19;;;;;;;;;5.00;5.00;;;;;16.79;100.00;99903.72;5071445;27;45335;-76
2023/03/13 09:31:44;;;;;;;;;7.67;7.33;;;;;16.85;100.00;99901.16;5069539;28;46716;-76
2023/03/13 09:34:09;;;;;;;;;5.00;5.00;;;;;16.96;100.00;99891.41;5064607;28;46381;-75
2023/03/13 09:36:35;;;;;;;;;6.00;6.00;;;;;17.01;100.00;99887.00;5073343;28;45415;-76
2023/03/13 09:39:01;;;;;;;;;7.00;5.00;;;;;17.05;100.00;99876.56;5073422;27;45351;-76
2023/03/13 09:41:35;;;;;;;;;5.33;5.00;;;;;17.07;100.00;99877.19;5067832;28;45620;-76
2023/03/13 09:44:10;;;;;;;;;6.67;6.67;;;;;16.97;100.00;99879.66;5072590;28;47422;-75
2023/03/13 09:46:56;;;;;;;;;6.00;5.67;;;;;17.01;100.00;99895.03;5068486;28;45351;-77
2023/03/13 09:49:36;;;;;;;;;5.67;5.67;;;;;16.94;100.00;99877.44;5077282;28;45229;-76
2023/03/13 09:52:29;;;;;;;;;4.00;4.00;;;;;16.98;100.00;99892.84;5067666;28;47326;-77
2023/03/13 09:55:00;;;;;;;;;7.33;6.00;;;;;16.97;100.00;99890.38;5072931;27;47210;-77
2023/03/13 09:57:33;;;;;;;;;3.67;3.67;;;;;16.98;100.00;99890.16;5078879;28;45366;-76
2023/03/13 10:00:20;;;;;;;;;6.00;6.00;;;;;17.00;100.00;99871.91;5080506;27;45678;-76
2023/03/13 10:02:55;;;;;;;;;4.00;4.00;;;;;17.04;100.00;99875.75;5069784;28;45793;-76
2023/03/13 10:05:27;;;;;;;;;5.00;5.00;;;;;17.06;100.00;99859.41;5069953;28;47634;-77
2023/03/13 10:08:04;;;;;;;;;3.00;3.00;;;;;17.05;100.00;99852.41;5079082;28;45294;-76
2023/03/13 10:10:51;;;;;;;;;3.00;3.00;;;;;17.07;100.00;99854.91;5069443;28;45348;-76
2023/03/13 10:13:34;;;;;;;;;6.00;4.67;;;;;17.08;100.00;99856.50;5069809;28;47237;-76
2023/03/13 10:16:14;;;;;;;;;5.00;5.00;;;;;17.12;100.00;99841.59;5080412;28;47996;-76
2023/03/13 10:18:46;;;;;;;;;2.67;2.67;;;;;17.18;100.00;99854.03;5074633;28;45571;-77
2023/03/13 10:21:18;;;;;;;;;5.33;4.67;;;;;17.26;100.00;99845.59;5074232;28;45642;-76
2023/03/13 10:24:21;;;;;;;;;3.67;3.67;;;;;17.32;100.00;99849.19;5069979;28;45483;-76
2023/03/13 10:26:46;;;;;;;;;3.67;3.67;;;;;17.27;100.00;99828.41;5091824;27;48422;-76
2023/03/13 10:29:20;;;;;;;;;4.67;4.67;;;;;17.28;100.00;99843.50;5076580;27;45357;-76
2023/03/13 10:31:55;;;;;;;;;4.00;4.00;;;;;17.26;100.00;99840.22;5076935;28;45371;-76
2023/03/13 10:34:20;;;;;;;;;4.67;4.67;;;;;17.23;100.00;99826.47;5078639;27;46203;-77
2023/03/13 10:36:49;;;;;;;;;6.00;6.00;;;;;17.15;100.00;99835.75;5066742;28;47808;-76
2023/03/13 10:39:17;;;;;;;;;7.00;6.00;;;;;17.08;100.00;99845.78;5069145;28;45514;-76
2023/03/13 10:41:42;;;;;;;;;6.00;5.67;;;;;16.99;100.00;99840.78;5093235;27;45425;-76
2023/03/13 10:44:17;;;;;;;;;8.33;6.67;;;;;16.99;100.00;99821.16;5072133;27;47342;-77
2023/03/13 10:46:45;;;;;;;;;7.00;7.00;;;;;16.92;100.00;99830.16;5072098;28;48608;-77
2023/03/13 10:49:22;;;;;;;;;4.00;4.00;;;;;16.85;100.00;99824.13;5076382;28;45394;-76
2023/03/13 10:51:56;;;;;;;;;7.67;7.67;;;;;16.81;100.00;99819.47;5080285;28;45506;-76
2023/03/13 10:54:35;;;;;;;;;6.00;6.00;;;;;16.75;100.00;99815.88;5070174;27;46082;-77
2023/03/13 10:57:24;;;;;;;;;8.67;7.67;;;;;16.74;100.00;99820.44;5067676;28;47939;-77
2023/03/13 10:59:51;;;;;;;;;4.67;4.67;;;;;16.69;100.00;99814.16;5076982;27;45338;-76
2023/03/13 11:02:25;;;;;;;;;8.00;7.00;;;;;16.66;100.00;99815.44;5079501;27;45473;-77
2023/03/13 11:04:54;;;;;;;;;7.67;6.00;;;;;16.60;100.00;99811.84;5068159;27;45765;-77
2023/03/13 11:07:25;;;;;;;;;6.00;6.00;;;;;16.57;100.00;99803.44;5075725;28;46392;-76
2023/03/13 11:09:59;;;;;;;;;7.00;7.00;;;;;16.55;100.00;99809.06;5078553;28;45431;-79
2023/03/13 11:12:25;;;;;;;;;6.00;6.00;;;;;16.53;100.00;99798.56;5070096;27;45395;-78
2023/03/13 11:15:02;;;;;;;;;8.00;6.67;;;;;16.62;100.00;99798.19;5076879;27;45674;-78
2023/03/13 11:17:37;;;;;;;;;7.00;7.00;;;;;16.74;100.00;99801.69;5073664;27;47531;-79
2023/03/13 11:20:12;;;;;;;;;10.00;9.00;;;;;16.85;100.00;99797.28;5075976;28;45769;-80
2023/03/13 11:22:43;;;;;;;;;10.67;9.33;;;;;16.99;100.00;99803.19;5065406;28;45294;-79